createdAt,value
2017-04-28T00:00:23.204Z,57.55
2017-04-28T00:00:49.332Z,57.36
2017-04-28T00:01:15.470Z,57.55
2017-04-28T00:01:41.588Z,57.36
2017-04-28T00:02:07.719Z,57.55
2017-04-28T00:02:33.863Z,57.84
2017-04-28T00:02:59.951Z,57.26
2017-04-28T00:03:26.111Z,57.55
2017-04-28T00:03:52.331Z,57.17
2017-04-28T00:04:18.468Z,57.55
2017-04-28T00:04:44.572Z,57.07
2017-04-28T00:05:10.671Z,57.65
2017-04-28T00:05:36.783Z,57.84
2017-04-28T00:06:02.882Z,57.17
2017-04-28T00:06:29.012Z,57.36
2017-04-28T00:06:55.098Z,57.17
2017-04-28T00:07:21.193Z,57.55
2017-04-28T00:07:47.354Z,57.84
2017-04-28T00:08:13.492Z,57.93
2017-04-28T00:08:39.639Z,57.93
2017-04-28T00:09:05.744Z,58.12
2017-04-28T00:09:31.889Z,58.22
2017-04-28T00:09:57.992Z,58.03
2017-04-28T00:10:24.126Z,57.65
2017-04-28T00:10:50.223Z,58.12
2017-04-28T00:11:16.328Z,57.84
2017-04-28T00:11:42.444Z,58.03
2017-04-28T00:12:08.563Z,57.84
2017-04-28T00:12:34.668Z,57.74
2017-04-28T00:13:00.788Z,57.84
2017-04-28T00:13:26.923Z,57.84
2017-04-28T00:13:53.140Z,58.03
2017-04-28T00:14:19.289Z,57.84
2017-04-28T00:14:45.399Z,57.9
2017-04-28T00:15:11.560Z,57.9
2017-04-28T00:15:37.646Z,58.18
2017-04-28T00:16:03.748Z,58
2017-04-28T00:16:29.844Z,58.03
2017-04-28T00:16:55.931Z,58.18
2017-04-28T00:17:22.066Z,58.28
2017-04-28T00:17:48.215Z,58.5
2017-04-28T00:18:14.379Z,58.28
2017-04-28T00:18:40.509Z,58.12
2017-04-28T00:19:06.632Z,58.37
2017-04-28T00:19:32.771Z,58.18
2017-04-28T00:19:58.876Z,58.22
2017-04-28T00:20:25.075Z,58.57
2017-04-28T00:20:51.164Z,58.88
2017-04-28T00:21:17.258Z,58.09
2017-04-28T00:21:43.371Z,58.18
2017-04-28T00:22:09.554Z,58.28
2017-04-28T00:22:35.652Z,58.18
2017-04-28T00:23:01.743Z,58.28
2017-04-28T00:23:27.837Z,57.81
2017-04-28T00:23:54.025Z,57.84
2017-04-28T00:24:20.137Z,58.03
2017-04-28T00:24:46.335Z,57.84
2017-04-28T00:25:12.467Z,58
2017-04-28T00:25:38.577Z,58.12
2017-04-28T00:26:04.670Z,57.52
2017-04-28T00:26:30.802Z,57.81
2017-04-28T00:26:56.892Z,58
2017-04-28T00:27:22.979Z,58
2017-04-28T00:27:49.116Z,58.18
2017-04-28T00:28:15.291Z,58
2017-04-28T00:28:41.430Z,57.74
2017-04-28T00:29:07.533Z,58
2017-04-28T00:29:33.686Z,57.43
2017-04-28T00:29:59.821Z,57.26
2017-04-28T00:30:25.921Z,57.33
2017-04-28T00:30:52.080Z,57.14
2017-04-28T00:31:18.164Z,57.55
2017-04-28T00:31:44.259Z,57.81
2017-04-28T00:32:10.351Z,57.93
2017-04-28T00:32:36.480Z,58.18
2017-04-28T00:33:02.634Z,58.12
2017-04-28T00:33:28.768Z,57.93
2017-04-28T00:33:54.870Z,58.03
2017-04-28T00:34:21.028Z,57.84
2017-04-28T00:34:47.164Z,57.81
2017-04-28T00:35:13.260Z,57.24
2017-04-28T00:35:39.393Z,57.43
2017-04-28T00:36:05.480Z,57.71
2017-04-28T00:36:31.575Z,57.52
2017-04-28T00:36:57.680Z,57.52
2017-04-28T00:37:23.770Z,57.43
2017-04-28T00:37:50.030Z,57.14
2017-04-28T00:38:16.145Z,57.33
2017-04-28T00:38:42.342Z,57.24
2017-04-28T00:39:08.472Z,57.33
2017-04-28T00:39:34.633Z,57.24
2017-04-28T00:40:00.753Z,57.43
2017-04-28T00:40:26.882Z,57.24
2017-04-28T00:40:53.026Z,57.33
2017-04-28T00:41:19.138Z,57.45
2017-04-28T00:41:45.271Z,57.33
2017-04-28T00:42:11.365Z,57.04
2017-04-28T00:42:37.504Z,57.33
2017-04-28T00:43:03.686Z,57.71
2017-04-28T00:43:29.801Z,58.09
2017-04-28T00:43:55.931Z,57.9
2017-04-28T00:44:22.127Z,57.52
2017-04-28T00:44:48.237Z,58.09
2017-04-28T00:45:14.344Z,57.81
2017-04-28T00:45:40.466Z,57.33
2017-04-28T00:46:06.552Z,58
2017-04-28T00:46:32.712Z,57.81
2017-04-28T00:46:58.811Z,58
2017-04-28T00:47:24.897Z,57.81
2017-04-28T00:47:51.025Z,58.09
2017-04-28T00:48:17.183Z,57.9
2017-04-28T00:48:43.345Z,58
2017-04-28T00:49:09.544Z,58
2017-04-28T00:49:35.650Z,58.28
2017-04-28T00:50:01.736Z,58.47
2017-04-28T00:50:27.862Z,58.18
2017-04-28T00:50:54.016Z,58.09
2017-04-28T00:51:20.112Z,58.09
2017-04-28T00:51:46.231Z,57.9
2017-04-28T00:52:12.350Z,58
2017-04-28T00:52:38.498Z,58.18
2017-04-28T00:53:04.635Z,58.09
2017-04-28T00:53:30.740Z,58.28
2017-04-28T00:53:56.890Z,58.28
2017-04-28T00:54:23.066Z,58.28
2017-04-28T00:54:49.210Z,58.28
2017-04-28T00:55:15.295Z,58.28
2017-04-28T00:55:41.400Z,58.18
2017-04-28T00:56:07.521Z,58.47
2017-04-28T00:56:33.635Z,58.09
2017-04-28T00:56:59.789Z,58
2017-04-28T00:57:25.915Z,58.37
2017-04-28T00:57:52.059Z,58.37
2017-04-28T00:58:18.175Z,58.47
2017-04-28T00:58:44.306Z,58.09
2017-04-28T00:59:10.490Z,58.37
2017-04-28T00:59:36.637Z,58
2017-04-28T01:00:02.728Z,57.9
2017-04-28T01:00:28.861Z,58.37
2017-04-28T01:00:54.983Z,58
2017-04-28T01:01:21.068Z,58.28
2017-04-28T01:01:47.198Z,58.57
2017-04-28T01:02:13.329Z,58.28
2017-04-28T01:02:39.465Z,58.57
2017-04-28T01:03:05.586Z,58.47
2017-04-28T01:03:31.743Z,58.57
2017-04-28T01:03:57.856Z,58.66
2017-04-28T01:04:24.001Z,58.76
2017-04-28T01:04:50.158Z,58.95
2017-04-28T01:05:16.274Z,58.95
2017-04-28T01:05:42.405Z,59.14
2017-04-28T01:06:08.488Z,59.33
2017-04-28T01:06:34.639Z,58.85
2017-04-28T01:07:00.713Z,58.85
2017-04-28T01:07:26.827Z,59.14
2017-04-28T01:07:52.946Z,58.28
2017-04-28T01:08:19.078Z,58.37
2017-04-28T01:08:45.247Z,58.57
2017-04-28T01:09:11.361Z,58.47
2017-04-28T01:09:37.545Z,58.66
2017-04-28T01:10:03.666Z,58.66
2017-04-28T01:10:29.805Z,58.95
2017-04-28T01:10:55.932Z,59.05
2017-04-28T01:11:22.047Z,59.05
2017-04-28T01:11:48.180Z,58.47
2017-04-28T01:12:14.293Z,59.14
2017-04-28T01:12:40.427Z,59.14
2017-04-28T01:13:06.584Z,58.85
2017-04-28T01:13:32.706Z,59.14
2017-04-28T01:13:58.794Z,58.28
2017-04-28T01:14:24.897Z,58.37
2017-04-28T01:14:51.051Z,58.47
2017-04-28T01:15:17.165Z,58.37
2017-04-28T01:15:43.291Z,58.37
2017-04-28T01:16:09.396Z,58.57
2017-04-28T01:16:35.488Z,58.28
2017-04-28T01:17:01.608Z,58.28
2017-04-28T01:17:27.720Z,58.47
2017-04-28T01:17:53.873Z,58.28
2017-04-28T01:18:20.054Z,58.47
2017-04-28T01:18:46.167Z,59.05
2017-04-28T01:19:12.320Z,59.14
2017-04-28T01:19:38.452Z,58.76
2017-04-28T01:20:04.587Z,59.33
2017-04-28T01:20:30.736Z,58.76
2017-04-28T01:20:56.812Z,58.85
2017-04-28T01:21:22.949Z,59.05
2017-04-28T01:21:49.041Z,59.14
2017-04-28T01:22:15.138Z,58.95
2017-04-28T01:22:41.259Z,58.95
2017-04-28T01:23:07.390Z,58.95
2017-04-28T01:23:33.501Z,58.95
2017-04-28T01:23:59.647Z,58.66
2017-04-28T01:24:25.776Z,59.14
2017-04-28T01:24:51.890Z,59.23
2017-04-28T01:25:18.008Z,58.95
2017-04-28T01:25:44.113Z,59.14
2017-04-28T01:26:10.205Z,59.14
2017-04-28T01:26:36.317Z,59.14
2017-04-28T01:27:02.450Z,59.05
2017-04-28T01:27:28.543Z,59.14
2017-04-28T01:27:54.672Z,59.05
2017-04-28T01:28:20.812Z,58.95
2017-04-28T01:28:46.931Z,59.14
2017-04-28T01:29:13.088Z,59.52
2017-04-28T01:29:39.205Z,59.99
2017-04-28T01:30:05.365Z,59.71
2017-04-28T01:30:31.528Z,59.52
2017-04-28T01:30:57.622Z,59.42
2017-04-28T01:31:23.736Z,59.05
2017-04-28T01:31:49.864Z,58.85
2017-04-28T01:32:15.987Z,58.95
2017-04-28T01:32:42.098Z,59.23
2017-04-28T01:33:08.220Z,59.33
2017-04-28T01:33:34.322Z,59.33
2017-04-28T01:34:00.460Z,59.52
2017-04-28T01:34:26.556Z,59.14
2017-04-28T01:34:52.687Z,59.71
2017-04-28T01:35:18.803Z,59.61
2017-04-28T01:35:44.921Z,59.42
2017-04-28T01:36:11.025Z,60.18
2017-04-28T01:36:37.140Z,59.99
2017-04-28T01:37:03.227Z,59.9
2017-04-28T01:37:29.333Z,59.99
2017-04-28T01:37:55.481Z,59.8
2017-04-28T01:38:21.644Z,59.87
2017-04-28T01:38:47.802Z,59.87
2017-04-28T01:39:13.924Z,59.52
2017-04-28T01:39:40.078Z,59.68
2017-04-28T01:40:06.197Z,59.96
2017-04-28T01:40:32.309Z,59.49
2017-04-28T01:40:58.417Z,59.68
2017-04-28T01:41:24.510Z,60.16
2017-04-28T01:41:50.648Z,60.25
2017-04-28T01:42:16.750Z,60.16
2017-04-28T01:42:42.870Z,60.35
2017-04-28T01:43:09.033Z,60.91
2017-04-28T01:43:35.184Z,60.53
2017-04-28T01:44:01.313Z,60.72
2017-04-28T01:44:27.404Z,60.91
2017-04-28T01:44:53.497Z,60.72
2017-04-28T01:45:19.611Z,60.53
2017-04-28T01:45:45.766Z,60.91
2017-04-28T01:46:11.892Z,60.91
2017-04-28T01:46:37.980Z,60.72
2017-04-28T01:47:04.103Z,60.63
2017-04-28T01:47:30.261Z,60.44
2017-04-28T01:47:56.422Z,60.53
2017-04-28T01:48:22.642Z,60.47
2017-04-28T01:48:48.774Z,60.63
2017-04-28T01:49:14.912Z,60.53
2017-04-28T01:49:41.031Z,60.16
2017-04-28T01:50:07.152Z,60.57
2017-04-28T01:50:33.279Z,60.82
2017-04-28T01:50:59.383Z,60.63
2017-04-28T01:51:25.495Z,60.35
2017-04-28T01:51:51.644Z,60.66
2017-04-28T01:52:17.772Z,60.66
2017-04-28T01:52:43.859Z,60.94
2017-04-28T01:53:10.000Z,60.57
2017-04-28T01:53:36.184Z,60.25
2017-04-28T01:54:02.323Z,60.57
2017-04-28T01:54:28.459Z,60.53
2017-04-28T01:54:54.593Z,60.35
2017-04-28T01:55:20.688Z,60.44
2017-04-28T01:55:46.810Z,60.53
2017-04-28T01:56:12.895Z,60.91
2017-04-28T01:56:38.989Z,60.53
2017-04-28T01:57:05.122Z,60.63
2017-04-28T01:57:31.266Z,60.44
2017-04-28T01:57:57.406Z,60.72
2017-04-28T01:58:23.564Z,60.63
2017-04-28T01:58:49.714Z,60.53
2017-04-28T01:59:15.804Z,60.72
2017-04-28T01:59:41.928Z,60.44
2017-04-28T02:00:08.080Z,60.72
2017-04-28T02:00:34.191Z,60.82
2017-04-28T02:01:00.288Z,60.35
2017-04-28T02:01:26.375Z,60.35
2017-04-28T02:01:52.509Z,60.35
2017-04-28T02:02:18.604Z,60.35
2017-04-28T02:02:44.691Z,60.44
2017-04-28T02:03:10.820Z,60.72
2017-04-28T02:03:36.945Z,60.91
2017-04-28T02:04:03.127Z,60.82
2017-04-28T02:04:29.323Z,60.72
2017-04-28T02:04:55.445Z,60.91
2017-04-28T02:05:21.529Z,60.82
2017-04-28T02:05:47.654Z,60.63
2017-04-28T02:06:13.811Z,60.53
2017-04-28T02:06:39.901Z,61.29
2017-04-28T02:07:06.050Z,61.01
2017-04-28T02:07:32.185Z,60.91
2017-04-28T02:07:58.388Z,61.39
2017-04-28T02:08:24.519Z,61.2
2017-04-28T02:08:50.630Z,60.82
2017-04-28T02:09:16.728Z,60.75
2017-04-28T02:09:42.832Z,61.1
2017-04-28T02:10:08.945Z,61.96
2017-04-28T02:10:35.039Z,61.58
2017-04-28T02:11:01.141Z,61.68
2017-04-28T02:11:27.233Z,61.39
2017-04-28T02:11:53.321Z,61.58
2017-04-28T02:12:19.420Z,61.39
2017-04-28T02:12:45.569Z,61.2
2017-04-28T02:13:11.702Z,60.91
2017-04-28T02:13:37.837Z,61.2
2017-04-28T02:14:03.956Z,61.68
2017-04-28T02:14:30.111Z,61.68
2017-04-28T02:14:56.252Z,61.77
2017-04-28T02:15:22.339Z,61.39
2017-04-28T02:15:48.444Z,61.58
2017-04-28T02:16:14.594Z,62.24
2017-04-28T02:16:40.683Z,61.39
2017-04-28T02:17:06.809Z,61.68
2017-04-28T02:17:33.046Z,61.39
2017-04-28T02:17:59.132Z,61.68
2017-04-28T02:18:25.233Z,61.68
2017-04-28T02:18:51.365Z,61.58
2017-04-28T02:19:17.501Z,61.39
2017-04-28T02:19:43.645Z,61.68
2017-04-28T02:20:09.805Z,61.48
2017-04-28T02:20:35.913Z,61.77
2017-04-28T02:21:02.031Z,62.34
2017-04-28T02:21:28.162Z,61.96
2017-04-28T02:21:54.252Z,61.77
2017-04-28T02:22:20.363Z,61.96
2017-04-28T02:22:46.500Z,62.34
2017-04-28T02:23:12.592Z,62.53
2017-04-28T02:23:38.744Z,61.77
2017-04-28T02:24:04.905Z,62.15
2017-04-28T02:24:31.024Z,61.39
2017-04-28T02:24:57.125Z,62.15
2017-04-28T02:25:23.241Z,61.68
2017-04-28T02:25:49.379Z,61.96
2017-04-28T02:26:15.508Z,62.34
2017-04-28T02:26:41.603Z,62.62
2017-04-28T02:27:07.736Z,62.43
2017-04-28T02:27:33.840Z,62.34
2017-04-28T02:28:00.017Z,62.72
2017-04-28T02:28:26.177Z,62.72
2017-04-28T02:28:52.354Z,62.62
2017-04-28T02:29:18.489Z,62.81
2017-04-28T02:29:44.622Z,63.1
2017-04-28T02:30:10.771Z,63.1
2017-04-28T02:30:36.859Z,62.53
2017-04-28T02:31:02.961Z,62.72
2017-04-28T02:31:29.085Z,62.72
2017-04-28T02:31:55.170Z,62.81
2017-04-28T02:32:21.300Z,63.67
2017-04-28T02:32:47.431Z,63.57
2017-04-28T02:33:13.516Z,63.29
2017-04-28T02:33:39.638Z,63.01
2017-04-28T02:34:05.742Z,62.62
2017-04-28T02:34:31.852Z,62.62
2017-04-28T02:34:57.952Z,62.53
2017-04-28T02:35:24.098Z,62.91
2017-04-28T02:35:50.185Z,62.72
2017-04-28T02:36:16.289Z,63.2
2017-04-28T02:36:42.399Z,63.01
2017-04-28T02:37:08.545Z,62.72
2017-04-28T02:37:34.676Z,62.81
2017-04-28T02:38:00.789Z,62.62
2017-04-28T02:38:26.908Z,62.72
2017-04-28T02:38:53.124Z,63.01
2017-04-28T02:39:19.293Z,63.2
2017-04-28T02:39:45.431Z,63.1
2017-04-28T02:40:11.585Z,63.48
2017-04-28T02:40:37.729Z,63.57
2017-04-28T02:41:03.886Z,63.39
2017-04-28T02:41:29.998Z,63.95
2017-04-28T02:41:56.118Z,63.48
2017-04-28T02:42:22.304Z,63.48
2017-04-28T02:42:48.446Z,63.67
2017-04-28T02:43:14.605Z,63.57
2017-04-28T02:43:40.768Z,63.57
2017-04-28T02:44:06.891Z,63.48
2017-04-28T02:44:32.978Z,63.57
2017-04-28T02:44:59.082Z,63.35
2017-04-28T02:45:25.177Z,63.67
2017-04-28T02:45:51.325Z,63.48
2017-04-28T02:46:17.444Z,63.39
2017-04-28T02:46:43.529Z,63.57
2017-04-28T02:47:09.637Z,63.26
2017-04-28T02:47:35.729Z,63.67
2017-04-28T02:48:01.843Z,63.67
2017-04-28T02:48:27.967Z,63.83
2017-04-28T02:48:54.065Z,63.54
2017-04-28T02:49:20.176Z,63.76
2017-04-28T02:49:46.328Z,63.48
2017-04-28T02:50:12.457Z,63.57
2017-04-28T02:50:38.564Z,63.64
2017-04-28T02:51:04.713Z,63.57
2017-04-28T02:51:30.803Z,63.54
2017-04-28T02:51:56.907Z,63.76
2017-04-28T02:52:23.031Z,63.76
2017-04-28T02:52:49.144Z,63.83
2017-04-28T02:53:15.269Z,63.64
2017-04-28T02:53:41.401Z,63.54
2017-04-28T02:54:07.562Z,63.17
2017-04-28T02:54:33.707Z,63.54
2017-04-28T02:54:59.838Z,63.35
2017-04-28T02:55:25.924Z,63.26
2017-04-28T02:55:52.043Z,63.64
2017-04-28T02:56:18.202Z,63.17
2017-04-28T02:56:44.351Z,63.17
2017-04-28T02:57:10.451Z,63.45
2017-04-28T02:57:36.534Z,63.29
2017-04-28T02:58:02.682Z,63.26
2017-04-28T02:58:28.841Z,63.17
2017-04-28T02:58:54.979Z,63.45
2017-04-28T02:59:21.122Z,63.54
2017-04-28T02:59:47.309Z,63.26
2017-04-28T03:00:13.481Z,63.45
2017-04-28T03:00:39.616Z,63.35
2017-04-28T03:01:05.722Z,63.54
2017-04-28T03:01:31.813Z,63.54
2017-04-28T03:01:58.078Z,63.83
2017-04-28T03:02:24.208Z,64.02
2017-04-28T03:02:50.357Z,64.11
2017-04-28T03:03:16.471Z,64.87
2017-04-28T03:03:42.653Z,64.21
2017-04-28T03:04:08.812Z,64.21
2017-04-28T03:04:34.947Z,64.4
2017-04-28T03:05:01.072Z,64.3
2017-04-28T03:05:27.229Z,64.3
2017-04-28T03:05:53.329Z,64.78
2017-04-28T03:06:19.420Z,64.87
2017-04-28T03:06:45.549Z,64.78
2017-04-28T03:07:11.642Z,64.78
2017-04-28T03:07:37.780Z,64.3
2017-04-28T03:08:03.961Z,64.3
2017-04-28T03:08:30.160Z,64.69
2017-04-28T03:08:56.345Z,64.49
2017-04-28T03:09:22.507Z,64.21
2017-04-28T03:09:48.623Z,64.59
2017-04-28T03:10:14.753Z,64.4
2017-04-28T03:10:40.848Z,64.4
2017-04-28T03:11:06.955Z,64.59
2017-04-28T03:11:33.061Z,64.78
2017-04-28T03:11:59.154Z,64.21
2017-04-28T03:12:25.266Z,64.02
2017-04-28T03:12:51.396Z,64.4
2017-04-28T03:13:17.544Z,64.3
2017-04-28T03:13:43.688Z,64.21
2017-04-28T03:14:09.830Z,63.73
2017-04-28T03:14:35.917Z,63.92
2017-04-28T03:15:02.054Z,64.87
2017-04-28T03:15:28.146Z,64.4
2017-04-28T03:15:54.266Z,64.4
2017-04-28T03:16:20.337Z,64.4
2017-04-28T03:16:46.431Z,64.4
2017-04-28T03:17:12.542Z,64.59
2017-04-28T03:17:38.669Z,64.49
2017-04-28T03:18:04.831Z,64.4
2017-04-28T03:18:30.939Z,64.59
2017-04-28T03:18:57.084Z,64.21
2017-04-28T03:19:23.225Z,64.4
2017-04-28T03:19:49.352Z,64.3
2017-04-28T03:20:15.449Z,64.4
2017-04-28T03:20:41.583Z,64.3
2017-04-28T03:21:07.709Z,64.3
2017-04-28T03:21:33.840Z,64.59
2017-04-28T03:21:59.950Z,64.49
2017-04-28T03:22:26.070Z,64.87
2017-04-28T03:22:52.202Z,64.59
2017-04-28T03:23:18.312Z,64.4
2017-04-28T03:23:44.480Z,64.49
2017-04-28T03:24:10.663Z,64.4
2017-04-28T03:24:36.835Z,64.4
2017-04-28T03:25:02.995Z,64.49
2017-04-28T03:25:29.080Z,64.59
2017-04-28T03:25:55.176Z,64.3
2017-04-28T03:26:21.284Z,64.21
2017-04-28T03:26:47.391Z,64.49
2017-04-28T03:27:13.486Z,64.11
2017-04-28T03:27:39.644Z,64.4
2017-04-28T03:28:05.815Z,64.78
2017-04-28T03:28:31.927Z,64.78
2017-04-28T03:28:58.060Z,64.59
2017-04-28T03:29:24.204Z,64.69
2017-04-28T03:29:50.339Z,65.16
2017-04-28T03:30:16.441Z,65.06
2017-04-28T03:30:42.581Z,65.06
2017-04-28T03:31:08.685Z,65.25
2017-04-28T03:31:34.774Z,65.06
2017-04-28T03:32:00.863Z,65.25
2017-04-28T03:32:26.999Z,65.25
2017-04-28T03:32:53.172Z,65.16
2017-04-28T03:33:19.332Z,65.25
2017-04-28T03:33:45.462Z,65.63
2017-04-28T03:34:11.642Z,65.54
2017-04-28T03:34:37.750Z,65.44
2017-04-28T03:35:03.928Z,65.82
2017-04-28T03:35:30.058Z,66.08
2017-04-28T03:35:56.150Z,65.79
2017-04-28T03:36:22.318Z,66.08
2017-04-28T03:36:48.404Z,65.88
2017-04-28T03:37:14.508Z,65.88
2017-04-28T03:37:40.656Z,65.98
2017-04-28T03:38:06.818Z,65.82
2017-04-28T03:38:32.994Z,66.11
2017-04-28T03:38:59.151Z,66.2
2017-04-28T03:39:25.263Z,65.73
2017-04-28T03:39:51.381Z,66.01
2017-04-28T03:40:17.485Z,65.92
2017-04-28T03:40:43.623Z,66.3
2017-04-28T03:41:09.718Z,66.67
2017-04-28T03:41:35.836Z,66.49
2017-04-28T03:42:01.935Z,66.3
2017-04-28T03:42:28.039Z,65.92
2017-04-28T03:42:54.121Z,65.82
2017-04-28T03:43:20.217Z,65.92
2017-04-28T03:43:46.374Z,66.01
2017-04-28T03:44:12.507Z,66.01
2017-04-28T03:44:38.599Z,66.01
2017-04-28T03:45:04.701Z,65.82
2017-04-28T03:45:30.818Z,65.92
2017-04-28T03:45:56.904Z,66.2
2017-04-28T03:46:23.068Z,66.2
2017-04-28T03:46:49.162Z,66.36
2017-04-28T03:47:15.273Z,66.39
2017-04-28T03:47:41.439Z,66.2
2017-04-28T03:48:07.586Z,66.46
2017-04-28T03:48:33.722Z,66.39
2017-04-28T03:48:59.898Z,66.2
2017-04-28T03:49:26.055Z,66.3
2017-04-28T03:49:52.190Z,66.39
2017-04-28T03:50:18.312Z,66.2
2017-04-28T03:50:44.469Z,66.3
2017-04-28T03:51:10.555Z,66.58
2017-04-28T03:51:36.686Z,66.3
2017-04-28T03:52:02.816Z,66.2
2017-04-28T03:52:28.933Z,66.58
2017-04-28T03:52:55.120Z,66.39
2017-04-28T03:53:21.233Z,66.11
2017-04-28T03:53:47.407Z,67.44
2017-04-28T03:54:13.591Z,66.39
2017-04-28T03:54:39.728Z,66.67
2017-04-28T03:55:05.874Z,66.3
2017-04-28T03:55:31.975Z,66.49
2017-04-28T03:55:58.067Z,66.77
2017-04-28T03:56:24.180Z,66.67
2017-04-28T03:56:50.337Z,66.77
2017-04-28T03:57:16.513Z,66.64
2017-04-28T03:57:42.624Z,66.36
2017-04-28T03:58:08.811Z,66.39
2017-04-28T03:58:34.928Z,66.36
2017-04-28T03:59:01.056Z,66.08
2017-04-28T03:59:27.226Z,66.64
2017-04-28T03:59:53.336Z,67.12
2017-04-28T04:00:19.493Z,66.83
2017-04-28T04:00:45.614Z,67.21
2017-04-28T04:01:11.700Z,67.53
2017-04-28T04:01:37.805Z,67.25
2017-04-28T04:02:03.930Z,67.15
2017-04-28T04:02:30.090Z,66.83
2017-04-28T04:02:56.267Z,67.02
2017-04-28T04:03:22.398Z,67.06
2017-04-28T04:03:48.538Z,67.02
2017-04-28T04:04:14.660Z,66.93
2017-04-28T04:04:40.823Z,66.93
2017-04-28T04:05:06.924Z,67.12
2017-04-28T04:05:33.020Z,67.21
2017-04-28T04:05:59.130Z,66.93
2017-04-28T04:06:25.231Z,67.4
2017-04-28T04:06:51.333Z,67.59
2017-04-28T04:07:17.443Z,67.31
2017-04-28T04:07:43.615Z,67.5
2017-04-28T04:08:09.799Z,67.4
2017-04-28T04:08:35.939Z,67.5
2017-04-28T04:09:02.081Z,67.4
2017-04-28T04:09:28.281Z,67.69
2017-04-28T04:09:54.432Z,67.97
2017-04-28T04:10:20.538Z,67.59
2017-04-28T04:10:46.620Z,67.79
2017-04-28T04:11:12.745Z,67.97
2017-04-28T04:11:38.875Z,68.44
2017-04-28T04:12:04.989Z,68.44
2017-04-28T04:12:31.105Z,68.54
2017-04-28T04:12:57.235Z,68.16
2017-04-28T04:13:23.401Z,68.64
2017-04-28T04:13:49.539Z,68.73
2017-04-28T04:14:15.645Z,69.02
2017-04-28T04:14:41.762Z,69.4
2017-04-28T04:15:07.862Z,69.02
2017-04-28T04:15:33.949Z,69.4
2017-04-28T04:16:00.067Z,69.4
2017-04-28T04:16:26.197Z,69.87
2017-04-28T04:16:52.287Z,69.65
2017-04-28T04:17:18.371Z,69.36
2017-04-28T04:17:44.479Z,69.74
2017-04-28T04:18:10.594Z,69.55
2017-04-28T04:18:36.757Z,70.31
2017-04-28T04:19:02.885Z,70.03
2017-04-28T04:19:29.009Z,70.21
2017-04-28T04:19:55.171Z,70.59
2017-04-28T04:20:21.352Z,70.5
2017-04-28T04:20:47.463Z,70.69
2017-04-28T04:21:13.569Z,70.59
2017-04-28T04:21:39.661Z,71.07
2017-04-28T04:22:05.772Z,70.78
2017-04-28T04:22:31.876Z,70.59
2017-04-28T04:22:58.004Z,70.98
2017-04-28T04:23:24.138Z,71.07
2017-04-28T04:23:50.313Z,70.98
2017-04-28T04:24:16.444Z,70.98
2017-04-28T04:24:42.578Z,70.98
2017-04-28T04:25:08.724Z,70.69
2017-04-28T04:25:34.856Z,70.88
2017-04-28T04:26:00.971Z,70.63
2017-04-28T04:26:27.068Z,70.69
2017-04-28T04:26:53.155Z,70.15
2017-04-28T04:27:19.256Z,70.35
2017-04-28T04:27:45.468Z,70.73
2017-04-28T04:28:11.552Z,70.69
2017-04-28T04:28:37.694Z,70.44
2017-04-28T04:29:03.851Z,70.35
2017-04-28T04:29:29.963Z,70.12
2017-04-28T04:29:56.081Z,70.35
2017-04-28T04:30:22.211Z,70.35
2017-04-28T04:30:48.301Z,70.25
2017-04-28T04:31:14.412Z,70.15
2017-04-28T04:31:40.570Z,70.25
2017-04-28T04:32:06.693Z,70.25
2017-04-28T04:32:32.777Z,70.25
2017-04-28T04:32:58.964Z,69.4
2017-04-28T04:33:25.084Z,69.68
2017-04-28T04:33:51.221Z,69.3
2017-04-28T04:34:17.343Z,69.49
2017-04-28T04:34:43.475Z,69.4
2017-04-28T04:35:09.631Z,69.59
2017-04-28T04:35:35.728Z,69.4
2017-04-28T04:36:01.865Z,69.68
2017-04-28T04:36:27.973Z,69.68
2017-04-28T04:36:54.065Z,69.49
2017-04-28T04:37:20.189Z,69.68
2017-04-28T04:37:46.290Z,69.78
2017-04-28T04:38:12.446Z,69.78
2017-04-28T04:38:38.605Z,69.3
2017-04-28T04:39:04.701Z,69.68
2017-04-28T04:39:30.858Z,69.68
2017-04-28T04:39:56.971Z,69.68
2017-04-28T04:40:23.084Z,69.49
2017-04-28T04:40:49.214Z,69.3
2017-04-28T04:41:15.331Z,69.4
2017-04-28T04:41:41.418Z,69.4
2017-04-28T04:42:07.525Z,68.44
2017-04-28T04:42:33.645Z,68.73
2017-04-28T04:42:59.746Z,68.44
2017-04-28T04:43:25.833Z,68.54
2017-04-28T04:43:51.978Z,68.54
2017-04-28T04:44:18.108Z,69.02
2017-04-28T04:44:44.200Z,68.44
2017-04-28T04:45:10.337Z,68.44
2017-04-28T04:45:36.444Z,68.73
2017-04-28T04:46:02.535Z,68.73
2017-04-28T04:46:28.626Z,68.64
2017-04-28T04:46:54.726Z,68.73
2017-04-28T04:47:20.877Z,68.92
2017-04-28T04:47:46.965Z,69.3
2017-04-28T04:48:13.113Z,69.02
2017-04-28T04:48:39.202Z,69.68
2017-04-28T04:49:05.391Z,69.4
2017-04-28T04:49:31.592Z,69.4
2017-04-28T04:49:57.679Z,69.02
2017-04-28T04:50:23.781Z,69.11
2017-04-28T04:50:49.901Z,69.3
2017-04-28T04:51:15.988Z,69.02
2017-04-28T04:51:42.095Z,69.59
2017-04-28T04:52:08.250Z,69.59
2017-04-28T04:52:34.329Z,69.59
2017-04-28T04:53:00.502Z,69.3
2017-04-28T04:53:26.605Z,69.02
2017-04-28T04:53:52.718Z,69.3
2017-04-28T04:54:18.839Z,69.4
2017-04-28T04:54:44.979Z,69.3
2017-04-28T04:55:11.123Z,69.4
2017-04-28T04:55:37.227Z,69.49
2017-04-28T04:56:03.310Z,69.4
2017-04-28T04:56:29.432Z,69.11
2017-04-28T04:56:55.561Z,69.4
2017-04-28T04:57:21.648Z,68.54
2017-04-28T04:57:47.792Z,68.64
2017-04-28T04:58:13.894Z,68.83
2017-04-28T04:58:40.007Z,68.54
2017-04-28T04:59:06.102Z,68.26
2017-04-28T04:59:32.274Z,68.54
2017-04-28T04:59:58.398Z,68.35
2017-04-28T05:00:24.554Z,68.73
2017-04-28T05:00:50.669Z,68.92
2017-04-28T05:01:16.786Z,69.4
2017-04-28T05:01:42.916Z,69.4
2017-04-28T05:02:09.064Z,69.02
2017-04-28T05:02:35.151Z,69.21
2017-04-28T05:03:01.282Z,69.11
2017-04-28T05:03:27.456Z,69.21
2017-04-28T05:03:53.616Z,69.21
2017-04-28T05:04:19.775Z,69.21
2017-04-28T05:04:45.894Z,69.11
2017-04-28T05:05:12.044Z,69.3
2017-04-28T05:05:38.136Z,68.83
2017-04-28T05:06:04.224Z,69.02
2017-04-28T05:06:30.329Z,69.59
2017-04-28T05:06:56.475Z,68.92
2017-04-28T05:07:22.561Z,68.92
2017-04-28T05:07:48.691Z,69.21
2017-04-28T05:08:14.817Z,69.4
2017-04-28T05:08:40.928Z,69.11
2017-04-28T05:09:07.081Z,69.02
2017-04-28T05:09:33.262Z,69.02
2017-04-28T05:09:59.368Z,68.54
2017-04-28T05:10:25.516Z,68.73
2017-04-28T05:10:51.634Z,69.02
2017-04-28T05:11:17.793Z,68.92
2017-04-28T05:11:43.889Z,68.64
2017-04-28T05:12:10.003Z,69.02
2017-04-28T05:12:36.129Z,68.26
2017-04-28T05:13:02.315Z,68.44
2017-04-28T05:13:28.399Z,68.73
2017-04-28T05:13:54.526Z,68.92
2017-04-28T05:14:20.682Z,68.54
2017-04-28T05:14:46.794Z,68.44
2017-04-28T05:15:12.888Z,68.26
2017-04-28T05:15:38.992Z,68.26
2017-04-28T05:16:05.108Z,68.64
2017-04-28T05:16:31.222Z,68.35
2017-04-28T05:16:57.357Z,68.35
2017-04-28T05:17:23.554Z,68.35
2017-04-28T05:17:49.667Z,68.58
2017-04-28T05:18:15.791Z,68.58
2017-04-28T05:18:41.920Z,67.82
2017-04-28T05:19:08.058Z,67.91
2017-04-28T05:19:34.207Z,67.91
2017-04-28T05:20:00.337Z,67.63
2017-04-28T05:20:26.447Z,67.91
2017-04-28T05:20:52.568Z,67.53
2017-04-28T05:21:18.697Z,67.82
2017-04-28T05:21:44.809Z,67.72
2017-04-28T05:22:10.908Z,67.63
2017-04-28T05:22:36.997Z,68.19
2017-04-28T05:23:03.096Z,68.29
2017-04-28T05:23:29.256Z,67.91
2017-04-28T05:23:55.342Z,67.25
2017-04-28T05:24:21.487Z,67.34
2017-04-28T05:24:47.674Z,66.87
2017-04-28T05:25:13.813Z,66.77
2017-04-28T05:25:39.931Z,67.06
2017-04-28T05:26:06.116Z,66.96
2017-04-28T05:26:32.232Z,67.25
2017-04-28T05:26:58.321Z,66.77
2017-04-28T05:27:24.419Z,67.06
2017-04-28T05:27:50.547Z,67.34
2017-04-28T05:28:16.650Z,67.15
2017-04-28T05:28:42.766Z,66.96
2017-04-28T05:29:08.918Z,66.96
2017-04-28T05:29:35.041Z,66.96
2017-04-28T05:30:01.131Z,66.96
2017-04-28T05:30:27.221Z,66.87
2017-04-28T05:30:53.384Z,66.96
2017-04-28T05:31:19.477Z,67.06
2017-04-28T05:31:45.566Z,67.06
2017-04-28T05:32:11.695Z,66.49
2017-04-28T05:32:37.791Z,66.67
2017-04-28T05:33:03.993Z,66.3
2017-04-28T05:33:30.135Z,66.58
2017-04-28T05:33:56.221Z,66.39
2017-04-28T05:34:22.328Z,66.39
2017-04-28T05:34:48.423Z,66.39
2017-04-28T05:35:14.537Z,66.58
2017-04-28T05:35:40.670Z,67.15
2017-04-28T05:36:06.794Z,67.06
2017-04-28T05:36:32.880Z,66.96
2017-04-28T05:36:58.981Z,67.15
2017-04-28T05:37:25.141Z,67.06
2017-04-28T05:37:51.298Z,66.96
2017-04-28T05:38:17.471Z,67.44